Terminal Aerodrome Forecast
Issued by NWS

Current Version | Previous Version | Text Only | Print | Product List | Glossary On
Versions: 1 2 3 4 5 6 7 8 9 10 11 12 13 14 15 16 17 18 19 20 21 22 23 24 25 26 27 28 29 30 31 32 33 34
000 FTUS41 KBOX 180651 AAA TAFBAF TAF AMD KBAF 180651Z 1807/1906 00000KT 3SM BR SKC TEMPO 1807/1810 1/4SM FG VV001 FM181200 VRB03KT P6SM SKC FM181500 34005KT P6SM SCT050 FM181700 31004KT P6SM BKN050 FM190200 35005KT P6SM SCT050=

USA.gov is the U.S. government's official web portal to all federal, state and local government web resources and services.